Terminal Aerodrome Forecast
Issued by NWS

Home | Current Version | Previous Version | Text Only | Print | Product List | Glossary On
Versions: 1 2 3 4 5 6 7 8 9 10 11 12 13 14 15 16 17 18
000
FTUS46 KPDT 302300
TAFPSC
TAF
KPSC 302334Z 3100/3124 31005KT P6SM OVC018
     FM310300 VRB02KT P6SM OVC012
     FM311000 VRB03KT 5SM BR OVC008
     FM311800 32004KT P6SM SCT008 OVC015
     FM312100 32004KT P6SM OVC023=

USA.gov is the U.S. government's official web portal to all federal, state and local government web resources and services.